Time;durP1;ratioP1;P1;durP2;ratioP2;P2;SDS_P1;SDS_P2;PMS_P1;PMS_P2;Temp;Humidity;BMP_temperature;BMP_pressure;BME280_temperature;BME280_humidity;BME280_pressure;Samples;Min_cycle;Max_cycle;Signal;HPM_P1;HPM_P2
2021/12/11 00:01:18;;;;;;;1999.90;561.83;;;3.60;99.90;;;;;;4884354;29;20536;-75
2021/12/11 00:03:56;;;;;;;1999.90;444.60;;;3.60;99.90;;;;;;4884147;29;20854;-75
2021/12/11 00:06:27;;;;;;;1999.90;539.20;;;3.60;99.90;;;;;;4900049;29;20441;-75
2021/12/11 00:08:59;;;;;;;1999.90;999.90;;;3.60;99.90;;;;;;4899907;29;20547;-75
2021/12/11 00:11:33;;;;;;;1999.90;999.90;;;3.60;99.90;;;;;;4902663;29;20455;-75
2021/12/11 00:14:04;;;;;;;1999.90;999.90;;;3.60;99.90;;;;;;4919183;29;20475;-75
2021/12/11 00:16:34;;;;;;;1999.90;480.43;;;3.60;99.90;;;;;;4902310;29;20553;-75
2021/12/11 00:19:11;;;;;;;1999.90;999.90;;;3.60;99.90;;;;;;4918551;29;20498;-75
2021/12/11 00:21:40;;;;;;;1999.90;999.90;;;3.60;99.90;;;;;;4899598;29;20559;-75
2021/12/11 00:24:12;;;;;;;930.53;139.47;;;3.60;99.90;;;;;;4883591;29;20491;-75
2021/12/11 00:26:45;;;;;;;1119.93;202.30;;;3.60;99.90;;;;;;4883609;29;20455;-75
2021/12/11 00:29:15;;;;;;;1999.90;999.90;;;3.60;99.90;;;;;;4892727;29;21038;-75
2021/12/11 00:31:46;;;;;;;1085.27;188.33;;;3.60;99.90;;;;;;4902224;29;20475;-75
2021/12/11 00:34:19;;;;;;;1999.90;999.90;;;3.60;99.90;;;;;;4902301;29;20572;-75
2021/12/11 00:36:52;;;;;;;1596.17;703.60;;;3.60;99.90;;;;;;4901787;29;20448;-75
2021/12/11 00:39:21;;;;;;;1999.90;999.90;;;3.60;99.90;;;;;;4902378;29;20466;-75
2021/12/11 00:41:54;;;;;;;1999.90;999.90;;;3.60;99.90;;;;;;4919356;29;20451;-75
2021/12/11 00:44:23;;;;;;;1938.60;309.37;;;3.60;99.90;;;;;;4902036;29;20558;-75
2021/12/11 00:46:51;;;;;;;1999.90;462.57;;;3.60;99.90;;;;;;4902345;29;20449;-75
2021/12/11 00:49:21;;;;;;;1999.90;999.90;;;3.60;99.90;;;;;;4901954;29;20458;-75
2021/12/11 00:51:51;;;;;;;1924.67;748.83;;;3.50;99.90;;;;;;4901919;29;20541;-75
2021/12/11 00:54:19;;;;;;;1133.00;197.97;;;3.60;99.90;;;;;;4901941;29;21091;-75
2021/12/11 00:56:52;;;;;;;1999.90;999.90;;;3.60;99.90;;;;;;4919145;29;20425;-75
2021/12/11 00:59:22;;;;;;;1999.90;999.90;;;3.50;99.90;;;;;;4902159;29;20829;-75
2021/12/11 01:01:54;;;;;;;1999.90;999.90;;;3.50;99.90;;;;;;4919200;29;20491;-75
2021/12/11 01:04:25;;;;;;;1999.90;999.90;;;3.50;99.90;;;;;;4901732;29;20538;-75
2021/12/11 01:06:58;;;;;;;1999.90;999.90;;;3.50;99.90;;;;;;4901780;29;20530;-75
2021/12/11 01:09:30;;;;;;;1936.23;745.27;;;3.50;99.90;;;;;;4918903;29;20447;-75
2021/12/11 01:12:09;;;;;;;1999.90;473.13;;;3.50;99.90;;;;;;4901846;29;20462;-75
2021/12/11 01:14:41;;;;;;;1999.90;475.90;;;3.50;99.90;;;;;;4901649;29;20475;-75
2021/12/11 01:17:16;;;;;;;1999.90;545.53;;;3.50;99.90;;;;;;4918148;29;20442;-74
2021/12/11 01:19:47;;;;;;;1999.90;561.30;;;3.50;99.90;;;;;;4918829;29;20431;-74
2021/12/11 01:22:31;;;;;;;1999.90;545.27;;;3.50;99.90;;;;;;4918222;29;20516;-75
2021/12/11 01:25:02;;;;;;;1999.90;625.43;;;3.50;99.90;;;;;;4915837;29;20472;-75
2021/12/11 01:27:32;;;;;;;1007.50;139.27;;;3.50;99.90;;;;;;4901304;29;20480;-75
2021/12/11 01:30:02;;;;;;;679.07;110.47;;;3.50;99.90;;;;;;4901438;29;20456;-75
2021/12/11 01:32:34;;;;;;;1999.90;624.57;;;3.50;99.90;;;;;;4901073;29;20503;-75
2021/12/11 01:35:07;;;;;;;1999.90;999.90;;;3.50;99.90;;;;;;4901129;29;20574;-75
2021/12/11 01:37:36;;;;;;;1999.90;999.90;;;3.40;99.90;;;;;;4901151;29;20468;-75
2021/12/11 01:40:08;;;;;;;1999.90;999.90;;;3.50;99.90;;;;;;4918240;29;20488;-75
2021/12/11 01:42:39;;;;;;;1999.90;999.90;;;3.50;99.90;;;;;;4901175;29;20478;-75
2021/12/11 01:45:11;;;;;;;1471.37;203.33;;;3.50;99.90;;;;;;4900786;29;20937;-75
2021/12/11 01:47:43;;;;;;;1999.90;999.90;;;3.50;99.90;;;;;;4901115;29;20472;-75
2021/12/11 01:50:16;;;;;;;1999.90;999.90;;;3.50;99.90;;;;;;4901170;29;20459;-75
2021/12/11 01:52:50;;;;;;;1217.63;135.33;;;3.50;99.90;;;;;;4898777;29;20995;-75
2021/12/11 01:55:25;;;;;;;1999.90;514.57;;;3.40;99.90;;;;;;4900651;29;21018;-75
2021/12/11 01:57:57;;;;;;;1999.90;466.50;;;3.50;99.90;;;;;;4900765;29;20483;-75
2021/12/11 02:00:30;;;;;;;1999.90;546.87;;;3.50;99.90;;;;;;4900882;29;20543;-75
2021/12/11 02:03:04;;;;;;;1999.90;999.90;;;3.40;99.90;;;;;;4900610;29;20448;-75
2021/12/11 02:05:36;;;;;;;1378.07;143.13;;;3.50;99.90;;;;;;4917650;29;20513;-75
2021/12/11 02:08:07;;;;;;;1999.90;542.83;;;3.40;99.90;;;;;;4917924;29;20470;-75
2021/12/11 02:10:40;;;;;;;1447.90;203.40;;;3.40;99.90;;;;;;4900682;29;20454;-75
2021/12/11 02:13:17;;;;;;;1839.97;730.70;;;3.50;99.90;;;;;;4917725;29;20466;-75
2021/12/11 02:15:48;;;;;;;1999.90;999.90;;;3.40;99.90;;;;;;4917205;29;20538;-75
2021/12/11 02:18:19;;;;;;;1999.90;527.57;;;3.40;99.90;;;;;;4918210;29;20566;-75
2021/12/11 02:20:52;;;;;;;1981.53;447.03;;;3.50;99.90;;;;;;4899167;29;20499;-75
2021/12/11 02:23:24;;;;;;;788.27;150.20;;;3.40;99.90;;;;;;4897027;29;20488;-75
2021/12/11 02:25:55;;;;;;;1572.37;491.80;;;3.40;99.90;;;;;;4881523;29;20544;-75
2021/12/11 02:28:31;;;;;;;1999.90;449.63;;;3.40;99.90;;;;;;4896648;29;20442;-75
2021/12/11 02:31:08;;;;;;;1999.90;999.90;;;3.30;99.90;;;;;;4897786;29;20815;-75
2021/12/11 02:33:41;;;;;;;1872.97;753.23;;;3.30;99.90;;;;;;4905099;29;20487;-75
2021/12/11 02:36:13;;;;;;;1334.87;198.77;;;3.20;99.90;;;;;;4899783;29;20815;-75
2021/12/11 02:38:48;;;;;;;1157.90;176.53;;;3.20;99.90;;;;;;4917591;29;20868;-75
2021/12/11 02:41:20;;;;;;;1999.90;538.43;;;3.20;99.90;;;;;;4917561;29;20445;-75
2021/12/11 02:43:53;;;;;;;1101.77;131.80;;;3.20;99.90;;;;;;4900103;29;20852;-75
2021/12/11 02:46:30;;;;;;;1754.63;259.53;;;3.20;99.90;;;;;;4900119;29;20535;-75
2021/12/11 02:49:02;;;;;;;1999.90;509.93;;;3.10;99.90;;;;;;4900324;29;20508;-75
2021/12/11 02:51:36;;;;;;;1999.90;369.17;;;3.10;99.90;;;;;;4900290;29;20443;-75
2021/12/11 02:54:09;;;;;;;1124.33;126.43;;;3.10;99.90;;;;;;4900226;29;20591;-75
2021/12/11 02:56:43;;;;;;;1693.03;175.27;;;3.00;99.90;;;;;;4900370;29;20503;-75
2021/12/11 02:59:15;;;;;;;1999.90;521.37;;;3.00;99.90;;;;;;4900832;29;20455;-75
2021/12/11 03:01:50;;;;;;;894.00;100.30;;;3.00;99.90;;;;;;4900236;29;20453;-75
2021/12/11 03:04:26;;;;;;;1334.10;210.50;;;3.00;99.90;;;;;;4917042;29;20494;-75
2021/12/11 03:06:55;;;;;;;1707.40;269.00;;;3.00;99.90;;;;;;4899907;29;20451;-75
2021/12/11 03:09:27;;;;;;;1583.33;239.97;;;3.00;99.90;;;;;;4899046;29;20453;-75
2021/12/11 03:11:57;;;;;;;1495.60;130.00;;;3.00;99.90;;;;;;4899980;29;20469;-75
2021/12/11 03:14:27;;;;;;;1999.90;474.27;;;3.00;99.90;;;;;;4916988;29;20535;-75
2021/12/11 03:16:56;;;;;;;1824.53;325.47;;;3.00;99.90;;;;;;4899973;29;20567;-75
2021/12/11 03:19:29;;;;;;;1945.67;396.97;;;3.00;99.90;;;;;;4916966;29;20445;-74
2021/12/11 03:21:59;;;;;;;1999.90;473.70;;;3.00;99.90;;;;;;4900295;29;20491;-75
2021/12/11 03:24:30;;;;;;;1999.90;465.53;;;3.00;99.90;;;;;;4899776;29;20476;-75
2021/12/11 03:27:12;;;;;;;1132.53;109.00;;;3.00;99.90;;;;;;4876989;29;20478;-75
2021/12/11 03:29:41;;;;;;;1942.00;364.27;;;3.00;99.90;;;;;;4874919;29;20495;-74
2021/12/11 03:32:13;;;;;;;1999.90;477.77;;;3.00;99.90;;;;;;4877045;29;20465;-75
2021/12/11 03:34:44;;;;;;;1966.97;377.70;;;3.00;99.90;;;;;;4861559;29;20569;-75
2021/12/11 03:37:14;;;;;;;1999.90;526.00;;;3.00;99.90;;;;;;4877255;29;20479;-75
2021/12/11 03:39:47;;;;;;;1999.90;220.60;;;3.00;99.90;;;;;;4877862;29;20899;-75
2021/12/11 03:42:20;;;;;;;1999.90;399.07;;;3.00;99.90;;;;;;4865183;29;20817;-75
2021/12/11 03:44:49;;;;;;;1673.13;177.07;;;3.00;99.90;;;;;;4880500;29;20475;-75
2021/12/11 03:47:20;;;;;;;1999.90;267.93;;;3.00;99.90;;;;;;4880654;29;20939;-75
2021/12/11 03:49:48;;;;;;;1999.90;235.13;;;3.00;99.90;;;;;;4880450;29;20498;-75
2021/12/11 03:52:17;;;;;;;1999.90;397.30;;;3.00;99.90;;;;;;4880491;29;20827;-75
2021/12/11 03:54:51;;;;;;;1449.07;156.23;;;3.00;99.90;;;;;;4864539;29;20480;-75
2021/12/11 03:57:23;;;;;;;1999.90;350.37;;;3.00;99.90;;;;;;4871073;29;20483;-75
2021/12/11 03:59:52;;;;;;;1999.90;373.03;;;3.00;99.90;;;;;;4902834;29;20500;-75
2021/12/11 04:02:24;;;;;;;1999.90;468.63;;;3.00;99.90;;;;;;4903017;29;20450;-75
2021/12/11 04:04:55;;;;;;;1769.67;165.03;;;3.00;99.90;;;;;;4919718;29;21030;-75
2021/12/11 04:07:27;;;;;;;1999.90;521.50;;;2.90;99.90;;;;;;4919825;29;20437;-75
2021/12/11 04:09:57;;;;;;;1315.67;200.23;;;3.00;99.90;;;;;;4903386;29;20449;-75
2021/12/11 04:12:28;;;;;;;1990.33;396.83;;;2.90;99.90;;;;;;4919006;29;20488;-75
2021/12/11 04:14:56;;;;;;;1999.90;427.90;;;3.00;99.90;;;;;;4919555;29;20476;-75
2021/12/11 04:17:27;;;;;;;1925.03;317.17;;;2.90;99.90;;;;;;4900685;29;20480;-75
2021/12/11 04:19:59;;;;;;;1152.90;125.73;;;2.90;99.90;;;;;;4884099;29;20482;-75
2021/12/11 04:22:28;;;;;;;1999.90;399.57;;;2.90;99.90;;;;;;4884554;29;20468;-75
2021/12/11 04:24:57;;;;;;;1740.87;208.53;;;2.90;99.90;;;;;;4883935;29;20473;-75
2021/12/11 04:27:27;;;;;;;1872.73;350.57;;;2.90;99.90;;;;;;4883919;29;20480;-75
2021/12/11 04:29:55;;;;;;;936.73;139.50;;;2.90;99.90;;;;;;4883781;29;20465;-75
2021/12/11 04:32:28;;;;;;;1880.23;372.20;;;2.80;99.90;;;;;;4883575;29;20457;-75
2021/12/11 04:34:56;;;;;;;1793.13;279.30;;;2.80;99.90;;;;;;4894727;29;20572;-74
2021/12/11 04:37:29;;;;;;;1643.90;275.40;;;2.80;99.90;;;;;;4902468;29;20483;-75
2021/12/11 04:40:03;;;;;;;1713.43;297.03;;;2.80;99.90;;;;;;4902269;29;20461;-75
2021/12/11 04:42:46;;;;;;;1093.33;146.43;;;2.80;99.90;;;;;;4919228;29;20429;-75
2021/12/11 04:45:19;;;;;;;1654.73;245.07;;;2.70;99.90;;;;;;4919424;29;20463;-75
2021/12/11 04:47:53;;;;;;;1999.90;405.47;;;2.70;99.90;;;;;;4902050;29;20501;-75
2021/12/11 04:50:31;;;;;;;1966.93;318.97;;;2.70;99.90;;;;;;4902070;29;20920;-75
2021/12/11 04:53:01;;;;;;;1531.90;171.73;;;2.70;99.90;;;;;;4918475;29;20534;-75
2021/12/11 04:55:50;;;;;;;1999.90;486.90;;;2.70;99.90;;;;;;4916830;29;21010;-75
2021/12/11 05:01:24;;;;;;;1431.07;210.10;;;2.70;99.90;;;;;;4898510;29;20978;-75
2021/12/11 05:04:12;;;;;;;1320.93;117.00;;;2.70;99.90;;;;;;4902244;29;20588;-75
2021/12/11 05:06:50;;;;;;;1949.63;329.27;;;2.70;99.90;;;;;;4901671;29;20534;-75
2021/12/11 05:09:25;;;;;;;1743.80;311.93;;;2.70;99.90;;;;;;4901567;29;20457;-75
2021/12/11 05:12:08;;;;;;;1999.90;356.50;;;2.70;99.90;;;;;;4901564;29;20452;-75
2021/12/11 05:14:37;;;;;;;1724.73;342.53;;;2.70;99.90;;;;;;4918741;29;20472;-75
2021/12/11 05:17:06;;;;;;;1999.90;464.63;;;2.70;99.90;;;;;;4918196;29;20507;-75
2021/12/11 05:19:34;;;;;;;1792.87;335.77;;;2.70;99.90;;;;;;4901375;29;20543;-75
2021/12/11 05:22:05;;;;;;;1999.90;543.57;;;2.70;99.90;;;;;;4901457;29;20567;-75
2021/12/11 05:24:36;;;;;;;1825.77;393.07;;;2.70;99.90;;;;;;4901435;29;20503;-75
2021/12/11 05:27:06;;;;;;;1999.90;474.47;;;2.70;99.90;;;;;;4901275;29;20812;-75
2021/12/11 05:29:35;;;;;;;1999.90;299.70;;;2.70;99.90;;;;;;4918875;29;20464;-75
2021/12/11 05:32:06;;;;;;;1999.90;241.53;;;2.70;99.90;;;;;;4901269;29;20448;-75
2021/12/11 05:34:39;;;;;;;1970.93;330.53;;;2.70;99.90;;;;;;4917683;29;20841;-74
2021/12/11 05:37:10;;;;;;;1988.23;375.23;;;2.80;99.90;;;;;;4900874;29;20495;-75
2021/12/11 05:39:39;;;;;;;1885.90;218.33;;;2.70;99.90;;;;;;4900931;29;20459;-75
2021/12/11 05:42:09;;;;;;;1889.47;235.53;;;2.70;99.90;;;;;;4901036;29;20457;-75
2021/12/11 05:44:38;;;;;;;1999.90;473.57;;;2.80;99.90;;;;;;4918035;29;20896;-75
2021/12/11 05:47:07;;;;;;;1882.43;238.30;;;2.80;99.90;;;;;;4900939;29;20947;-75
2021/12/11 05:49:35;;;;;;;1999.90;328.53;;;2.70;99.90;;;;;;4917513;29;20457;-74
2021/12/11 05:52:06;;;;;;;1978.00;228.77;;;2.80;99.90;;;;;;4900869;29;20449;-75
2021/12/11 05:54:36;;;;;;;1999.90;476.40;;;2.80;99.90;;;;;;4900702;29;20559;-75
2021/12/11 05:57:12;;;;;;;1999.90;262.57;;;2.80;99.90;;;;;;4918029;29;20545;-75
2021/12/11 05:59:42;;;;;;;1999.90;393.53;;;2.80;99.90;;;;;;4917867;29;20797;-75
2021/12/11 06:02:14;;;;;;;1997.70;331.43;;;2.80;99.90;;;;;;4917568;29;21030;-75
2021/12/11 06:04:44;;;;;;;1999.90;480.20;;;2.70;99.90;;;;;;4899848;29;20519;-75
2021/12/11 06:07:16;;;;;;;1999.90;262.93;;;2.80;99.90;;;;;;4900227;29;20505;-75
2021/12/11 06:09:47;;;;;;;1999.90;209.20;;;2.70;99.90;;;;;;4900380;29;20983;-75
2021/12/11 06:12:20;;;;;;;1942.27;187.70;;;2.70;99.90;;;;;;4900520;29;20447;-75
2021/12/11 06:14:50;;;;;;;1812.00;311.80;;;2.70;99.90;;;;;;4900493;29;20491;-75
2021/12/11 06:17:23;;;;;;;1820.57;238.07;;;2.70;99.90;;;;;;4900348;29;20493;-75
2021/12/11 06:19:53;;;;;;;1556.13;292.47;;;2.70;99.90;;;;;;4900520;29;20514;-75
2021/12/11 06:22:23;;;;;;;1724.73;320.73;;;2.70;99.90;;;;;;4899885;29;20472;-75
2021/12/11 06:24:52;;;;;;;1338.37;143.10;;;2.70;99.90;;;;;;4900411;29;20482;-75
2021/12/11 06:27:22;;;;;;;1999.90;409.57;;;2.70;99.90;;;;;;4917495;29;20488;-75
2021/12/11 06:29:50;;;;;;;1535.60;260.90;;;2.60;99.90;;;;;;4900197;29;20452;-75
2021/12/11 06:32:19;;;;;;;1356.97;153.83;;;2.60;99.90;;;;;;4900287;29;20459;-75
2021/12/11 06:34:47;;;;;;;1641.77;294.60;;;2.60;99.90;;;;;;4917444;29;20460;-75
2021/12/11 06:37:16;;;;;;;1827.03;282.93;;;2.60;99.90;;;;;;4917462;29;20444;-75
2021/12/11 06:39:44;;;;;;;1074.97;106.57;;;2.50;99.90;;;;;;4898020;29;20481;-75
2021/12/11 06:42:18;;;;;;;1703.63;214.40;;;2.50;99.90;;;;;;4900256;29;20512;-75
2021/12/11 06:44:48;;;;;;;739.20;114.27;;;2.50;99.90;;;;;;4900576;29;20490;-75
2021/12/11 06:47:16;;;;;;;433.07;82.00;;;2.40;99.90;;;;;;4917011;29;20550;-74
2021/12/11 06:49:45;;;;;;;1437.53;154.90;;;2.40;99.90;;;;;;4900206;29;20460;-74
2021/12/11 06:52:16;;;;;;;1347.47;136.23;;;2.40;99.90;;;;;;4899968;29;20500;-75
2021/12/11 06:54:44;;;;;;;1966.30;330.10;;;2.40;99.90;;;;;;4900030;29;20476;-75
2021/12/11 06:57:12;;;;;;;1654.73;278.93;;;2.30;99.90;;;;;;4899961;29;20456;-75
2021/12/11 06:59:41;;;;;;;1614.10;180.63;;;2.30;99.90;;;;;;4899980;29;20564;-75
2021/12/11 07:02:11;;;;;;;1894.73;178.97;;;2.30;99.90;;;;;;4900353;29;20542;-75
2021/12/11 07:04:39;;;;;;;1376.67;235.63;;;2.30;99.90;;;;;;4897991;29;20484;-74
2021/12/11 07:07:07;;;;;;;1754.80;211.63;;;2.20;99.90;;;;;;4899906;29;20460;-75
2021/12/11 07:09:37;;;;;;;1681.80;335.47;;;2.20;99.90;;;;;;4900060;29;20495;-75
2021/12/11 07:12:07;;;;;;;1217.57;133.27;;;2.20;99.90;;;;;;4900202;29;20460;-75
2021/12/11 07:14:35;;;;;;;1845.80;329.17;;;2.10;99.90;;;;;;4900358;29;20573;-75
2021/12/11 07:17:04;;;;;;;1269.90;268.83;;;2.10;99.90;;;;;;4920908;29;20449;-75
2021/12/11 07:19:33;;;;;;;1856.67;259.63;;;2.10;99.90;;;;;;4920735;29;20539;-75
2021/12/11 07:22:01;;;;;;;1210.53;276.47;;;2.10;99.90;;;;;;4920481;29;20469;-75
2021/12/11 07:24:33;;;;;;;1209.23;226.33;;;2.10;99.90;;;;;;4920689;29;20476;-75
2021/12/11 07:27:06;;;;;;;1004.67;137.60;;;2.00;99.90;;;;;;4903874;29;20903;-75
2021/12/11 07:29:36;;;;;;;1194.40;184.87;;;2.00;99.90;;;;;;4901143;29;20495;-75
2021/12/11 07:32:09;;;;;;;999.97;198.43;;;2.00;99.90;;;;;;4920226;29;20480;-75
2021/12/11 07:34:40;;;;;;;1527.30;211.87;;;1.90;99.90;;;;;;4903362;29;20484;-75
2021/12/11 07:37:09;;;;;;;1404.10;180.50;;;1.90;99.90;;;;;;4903224;29;20532;-75
2021/12/11 07:39:38;;;;;;;1758.60;198.70;;;1.90;99.90;;;;;;4920208;29;21003;-75
2021/12/11 07:42:07;;;;;;;1446.87;153.00;;;1.90;99.90;;;;;;4903035;29;20551;-75
2021/12/11 07:44:36;;;;;;;1068.60;191.80;;;1.90;99.90;;;;;;4903237;29;20484;-74
2021/12/11 07:47:06;;;;;;;1912.40;275.63;;;1.80;99.90;;;;;;4903229;29;20885;-75
2021/12/11 07:49:35;;;;;;;1476.70;254.67;;;1.80;99.90;;;;;;4918603;29;20445;-75
2021/12/11 07:52:06;;;;;;;1307.63;249.30;;;1.80;99.90;;;;;;4899954;29;20825;-75
2021/12/11 07:54:34;;;;;;;651.03;92.43;;;1.80;99.90;;;;;;4884183;29;20565;-75
2021/12/11 07:57:02;;;;;;;1085.23;224.17;;;1.80;99.90;;;;;;4884199;29;20961;-75
2021/12/11 07:59:30;;;;;;;945.63;133.27;;;1.80;99.90;;;;;;4917489;29;20484;-74
2021/12/11 08:01:58;;;;;;;1123.73;213.60;;;1.70;99.90;;;;;;4920143;29;20455;-74
2021/12/11 08:04:27;;;;;;;1909.60;276.83;;;1.70;99.90;;;;;;4920263;29;20472;-74
2021/12/11 08:06:55;;;;;;;1933.90;337.73;;;1.70;99.90;;;;;;4919745;29;20453;-74
2021/12/11 08:09:25;;;;;;;1915.30;267.90;;;1.70;99.90;;;;;;4902484;29;20458;-74
2021/12/11 08:11:54;;;;;;;1575.43;262.97;;;1.70;99.90;;;;;;4902236;29;20991;-75
2021/12/11 08:14:23;;;;;;;1482.80;233.43;;;1.70;99.90;;;;;;4902429;29;20476;-74
2021/12/11 08:16:56;;;;;;;1185.63;235.07;;;1.80;99.90;;;;;;4902496;29;20818;-75
2021/12/11 08:19:26;;;;;;;1999.90;525.10;;;1.80;99.90;;;;;;4919942;29;20556;-75
2021/12/11 08:21:57;;;;;;;1999.90;395.53;;;1.80;99.90;;;;;;4902545;29;20455;-75
2021/12/11 08:24:29;;;;;;;1818.07;250.13;;;1.80;99.90;;;;;;4919332;29;20484;-75
2021/12/11 08:27:00;;;;;;;1908.97;294.30;;;1.90;99.90;;;;;;4901428;29;21047;-74
2021/12/11 08:29:28;;;;;;;1999.90;710.17;;;1.90;99.90;;;;;;4902335;29;20451;-74
2021/12/11 08:31:59;;;;;;;1999.90;418.73;;;1.90;99.90;;;;;;4902237;29;20548;-74
2021/12/11 08:34:27;;;;;;;1882.77;301.23;;;2.00;99.90;;;;;;4902163;29;20893;-74
2021/12/11 08:36:56;;;;;;;1496.67;304.70;;;2.00;99.90;;;;;;4902843;29;20875;-74
2021/12/11 08:39:27;;;;;;;1999.90;673.23;;;2.00;99.90;;;;;;4902129;29;20527;-75
2021/12/11 08:41:56;;;;;;;1999.90;447.60;;;2.10;99.90;;;;;;4901666;29;20458;-75
2021/12/11 08:44:25;;;;;;;1999.90;359.30;;;2.10;99.90;;;;;;4902098;29;20485;-74
2021/12/11 08:46:55;;;;;;;1999.90;409.67;;;2.10;99.90;;;;;;4902035;29;20540;-74
2021/12/11 08:49:28;;;;;;;1999.90;560.03;;;2.10;99.90;;;;;;4919331;29;20452;-75
2021/12/11 08:52:00;;;;;;;1999.90;455.93;;;2.20;99.90;;;;;;4901913;29;20433;-74
2021/12/11 08:54:31;;;;;;;1999.90;358.20;;;2.20;99.90;;;;;;4901668;29;20572;-74
2021/12/11 08:57:04;;;;;;;1999.90;336.47;;;2.20;99.90;;;;;;4901802;29;20476;-75
2021/12/11 08:59:33;;;;;;;1921.30;315.70;;;2.30;99.90;;;;;;4901716;29;20483;-75
2021/12/11 09:02:07;;;;;;;1999.90;434.53;;;2.30;99.90;;;;;;4901642;29;20498;-74
2021/12/11 09:04:40;;;;;;;1999.90;401.37;;;2.30;99.90;;;;;;4919058;29;20484;-75
2021/12/11 09:07:12;;;;;;;1999.90;378.10;;;2.40;99.90;;;;;;4919422;29;20512;-75
2021/12/11 09:09:46;;;;;;;1999.90;412.50;;;2.40;99.90;;;;;;4901553;29;20538;-75
2021/12/11 09:12:18;;;;;;;1999.90;441.93;;;2.40;99.90;;;;;;4901611;29;20448;-75
2021/12/11 09:14:51;;;;;;;1959.90;355.27;;;2.50;99.90;;;;;;4916414;29;20483;-74
2021/12/11 09:17:25;;;;;;;1999.90;726.43;;;2.50;99.90;;;;;;4901892;29;20810;-75
2021/12/11 09:19:59;;;;;;;1999.90;512.40;;;2.50;99.90;;;;;;4901355;29;20468;-75
2021/12/11 09:22:30;;;;;;;1999.90;389.07;;;2.60;99.90;;;;;;4918829;29;20555;-75
2021/12/11 09:25:06;;;;;;;1999.90;282.03;;;2.60;99.90;;;;;;4900880;29;20481;-75
2021/12/11 09:27:40;;;;;;;1999.90;498.17;;;2.60;99.90;;;;;;4901326;29;20449;-75
2021/12/11 09:30:12;;;;;;;1999.90;484.70;;;2.60;99.90;;;;;;4901312;29;20947;-75
2021/12/11 09:32:44;;;;;;;1999.90;428.30;;;2.70;99.90;;;;;;4901237;29;20442;-75
2021/12/11 09:35:16;;;;;;;1999.90;410.60;;;2.70;99.90;;;;;;4899096;29;20592;-75
2021/12/11 09:37:49;;;;;;;1999.90;474.00;;;2.80;99.90;;;;;;4901035;29;20496;-75
2021/12/11 09:40:31;;;;;;;1999.90;237.97;;;2.80;99.90;;;;;;4918309;29;20564;-75
2021/12/11 09:43:00;;;;;;;1999.90;310.47;;;2.80;99.90;;;;;;4899472;29;20993;-75
2021/12/11 09:45:35;;;;;;;1999.90;500.73;;;2.90;99.90;;;;;;4882505;29;20544;-75
2021/12/11 09:48:07;;;;;;;1999.90;999.90;;;2.90;99.90;;;;;;4898949;29;20892;-75
2021/12/11 09:50:46;;;;;;;1999.90;479.43;;;3.00;99.90;;;;;;4882269;29;20445;-75
2021/12/11 09:53:16;;;;;;;1999.90;478.73;;;3.00;99.90;;;;;;4898935;29;20464;-75
2021/12/11 09:55:45;;;;;;;1999.90;278.10;;;3.00;99.90;;;;;;4888132;29;20565;-75
2021/12/11 09:58:17;;;;;;;1999.90;623.20;;;3.10;99.90;;;;;;4898459;29;20901;-75
2021/12/11 10:00:52;;;;;;;1999.90;473.57;;;3.10;99.90;;;;;;4900737;29;20484;-75
2021/12/11 10:03:23;;;;;;;1999.90;999.90;;;3.10;99.90;;;;;;4917836;29;20463;-75
2021/12/11 10:05:56;;;;;;;1999.90;801.80;;;3.20;99.90;;;;;;4918218;29;20428;-75
2021/12/11 10:08:29;;;;;;;1999.90;334.53;;;3.20;99.90;;;;;;4918266;29;20434;-75
2021/12/11 10:11:10;;;;;;;1999.90;559.53;;;3.30;99.90;;;;;;4900622;29;20448;-75
2021/12/11 10:13:42;;;;;;;1999.90;999.90;;;3.30;99.90;;;;;;4900360;29;20563;-75
2021/12/11 10:16:13;;;;;;;1999.90;763.57;;;3.30;99.90;;;;;;4900460;29;20456;-76
2021/12/11 10:18:42;;;;;;;1999.90;805.53;;;3.40;99.90;;;;;;4916075;29;20493;-75
2021/12/11 10:21:15;;;;;;;1999.90;999.90;;;3.40;99.90;;;;;;4900532;29;20483;-75
2021/12/11 10:23:45;;;;;;;1999.90;999.90;;;3.50;99.90;;;;;;4900290;29;20482;-75
2021/12/11 10:26:15;;;;;;;1999.90;999.90;;;3.50;99.90;;;;;;4900564;29;20460;-75
2021/12/11 10:28:48;;;;;;;1999.90;999.90;;;3.50;99.90;;;;;;4917286;29;20455;-75
2021/12/11 10:31:21;;;;;;;1999.90;999.90;;;3.60;99.90;;;;;;4900388;29;20524;-75
2021/12/11 10:33:50;;;;;;;1999.90;387.03;;;3.60;99.90;;;;;;4900210;29;20487;-75
2021/12/11 10:36:25;;;;;;;1982.57;354.37;;;3.60;99.90;;;;;;4900111;29;20441;-75
2021/12/11 10:38:54;;;;;;;1999.90;999.90;;;3.60;99.90;;;;;;4917454;29;20476;-75
2021/12/11 10:41:25;;;;;;;1999.90;999.90;;;3.70;99.90;;;;;;4900148;29;20468;-76
2021/12/11 10:44:08;;;;;;;1999.90;999.90;;;3.70;99.90;;;;;;4899891;29;20938;-74
2021/12/11 10:46:41;;;;;;;1999.90;999.90;;;3.80;99.90;;;;;;4916997;29;20429;-76
2021/12/11 10:49:13;;;;;;;1999.90;782.50;;;3.80;99.90;;;;;;4899124;29;20455;-77
2021/12/11 10:51:46;;;;;;;1999.90;999.90;;;3.90;99.90;;;;;;4899781;29;20459;-76
2021/12/11 10:54:16;;;;;;;1999.90;403.33;;;3.90;99.90;;;;;;4917227;29;20471;-77
2021/12/11 10:56:46;;;;;;;1999.90;999.90;;;3.90;99.90;;;;;;4900269;29;20536;-76
2021/12/11 10:59:21;;;;;;;1999.90;999.90;;;4.00;99.90;;;;;;4917473;29;20424;-76
2021/12/11 11:01:54;;;;;;;1663.00;725.57;;;4.00;99.90;;;;;;4899914;29;20463;-76
2021/12/11 11:04:26;;;;;;;1999.90;999.90;;;4.10;99.90;;;;;;4899912;29;20926;-76
2021/12/11 11:06:56;;;;;;;1999.90;999.90;;;4.10;99.90;;;;;;4916872;29;20466;-76
2021/12/11 11:09:26;;;;;;;1999.90;999.90;;;4.20;99.90;;;;;;4899623;29;20464;-74
2021/12/11 11:12:00;;;;;;;1999.90;999.90;;;4.30;99.90;;;;;;4896998;29;20457;-74
2021/12/11 11:14:32;;;;;;;1999.90;999.90;;;4.30;99.90;;;;;;4909026;29;20483;-74
2021/12/11 11:17:10;;;;;;;1999.90;999.90;;;4.40;99.90;;;;;;4900031;29;20554;-74
2021/12/11 11:19:42;;;;;;;1837.13;164.80;;;4.50;99.90;;;;;;4917050;29;20799;-74
2021/12/11 11:22:13;;;;;;;1922.57;206.20;;;4.50;99.90;;;;;;4899616;29;21070;-74
2021/12/11 11:24:46;;;;;;;1999.90;756.03;;;4.60;99.90;;;;;;4899873;29;20472;-75
2021/12/11 11:27:15;;;;;;;1999.90;999.90;;;4.60;99.90;;;;;;4899930;29;20536;-75
2021/12/11 11:29:45;;;;;;;1752.07;700.80;;;4.70;99.90;;;;;;4916797;29;20460;-74
2021/12/11 11:32:21;;;;;;;985.43;376.40;;;4.80;99.90;;;;;;4899788;29;20819;-75
2021/12/11 11:34:49;;;;;;;1999.90;758.97;;;4.80;99.90;;;;;;4900009;29;20578;-75
2021/12/11 11:37:21;;;;;;;1663.97;703.20;;;4.90;99.90;;;;;;4912371;29;20461;-74
2021/12/11 11:39:50;;;;;;;1060.00;402.10;;;4.90;99.90;;;;;;4899843;29;20496;-75
2021/12/11 11:42:21;;;;;;;1036.47;399.03;;;4.90;99.90;;;;;;4899338;29;20577;-76
2021/12/11 11:44:50;;;;;;;1972.57;744.53;;;5.00;99.90;;;;;;4899421;29;20476;-76
2021/12/11 11:47:20;;;;;;;859.90;395.87;;;5.00;99.90;;;;;;4899486;29;20460;-76
2021/12/11 11:49:49;;;;;;;905.40;376.60;;;5.00;99.90;;;;;;4916657;29;20446;-77
2021/12/11 11:52:20;;;;;;;1999.90;753.10;;;5.00;99.90;;;;;;4899337;29;20555;-77
2021/12/11 11:54:52;;;;;;;1999.90;999.90;;;5.00;99.90;;;;;;4899540;29;20484;-76
2021/12/11 11:57:24;;;;;;;1999.90;999.90;;;5.10;99.90;;;;;;4899293;29;20485;-77
2021/12/11 11:59:55;;;;;;;1865.27;743.83;;;5.00;99.90;;;;;;4895838;29;20461;-76
2021/12/11 12:02:29;;;;;;;1035.10;398.30;;;5.00;99.90;;;;;;4899036;29;20465;-76
2021/12/11 12:05:00;;;;;;;1999.90;762.63;;;5.00;99.90;;;;;;4896604;29;20471;-77
2021/12/11 12:07:31;;;;;;;1985.73;747.33;;;5.00;99.90;;;;;;4902653;29;20491;-76
2021/12/11 12:10:06;;;;;;;1856.93;733.87;;;5.00;99.90;;;;;;4902545;29;20506;-76
2021/12/11 12:12:36;;;;;;;1999.90;774.67;;;5.00;99.90;;;;;;4919649;29;20527;-77
2021/12/11 12:15:09;;;;;;;1779.33;724.33;;;5.10;99.90;;;;;;4902272;29;20478;-76
2021/12/11 12:17:39;;;;;;;1004.53;402.77;;;5.10;99.90;;;;;;4902384;29;20825;-77
2021/12/11 12:20:10;;;;;;;1012.27;380.87;;;5.10;99.90;;;;;;4917223;29;20448;-76
2021/12/11 12:22:40;;;;;;;1060.03;397.97;;;5.10;99.90;;;;;;4902874;29;21082;-77
2021/12/11 12:25:09;;;;;;;1002.80;402.70;;;5.10;99.90;;;;;;4902636;29;20512;-76
2021/12/11 12:27:42;;;;;;;1030.10;384.10;;;5.20;99.90;;;;;;4919350;29;20646;-76
2021/12/11 12:30:21;;;;;;;1337.43;170.70;;;5.20;99.90;;;;;;4902277;29;20445;-77
2021/12/11 12:32:54;;;;;;;1524.10;217.73;;;5.20;99.90;;;;;;4902240;29;20451;-76